Casper, WY (82601)

12:59 PM MST on February 14, 2016 (GMT -0700)
Casper Mountain Foothills | | Change Station
CLOSE
Current Station
Personal Weather Station
Location: Casper, WY
Elevation: 5334 ft
Nearby Weather Stations

Elev 5334 ft 42.83 °N, 106.31 °W | Updated 3 minutes ago

Partly Cloudy
Partly Cloudy
43.6 °F
Feels Like 39 °F
N
7.0
Wind Variable Wind from SW
Gusts 11.0 mph

Today
High -- | Low -- °F
--% Chance of Precip.
Yesterday
High -- | Low -- °F
Precip. -- in
Pressure 29.87 in
Visibility 10.0 miles
Clouds Scattered Clouds 10000 ft
Windchill 39 °F
Dew Point 21 °F
Humidity 40%
Rainfall 0.00 in
Snow Depth Not available.
7:04 AM 5:35 PM
Waxing Crescent, 44% visible
METAR KCPR 141953Z 27014G19KT 10SM SCT100 07/M04 A2985 RMK AO2 SLP114 T00671044
Pressure 29.87 in
Visibility 10.0 miles
Clouds Scattered Clouds 10000 ft
Windchill 39 °F
Dew Point 21 °F
Humidity 40%
Rainfall 0.00 in
Snow Depth Not available.
7:04 AM 5:35 PM
Waxing Crescent, 44% visible
METAR KCPR 141953Z 27014G19KT 10SM SCT100 07/M04 A2985 RMK AO2 SLP114 T00671044

10-Day Weather Forecast

Almanac

Astronomy

Feb. 14, 2016 Rise Set
Actual Time
Civil Twilight
Nautical Twilight
Astronomical Twilight
Moon
Length of Visible Light
Length of Day
Tomorrow will be .
, % of the Moon is Illuminated

Today's Extremes

State Highs State Lows

Community

WunderPhotos

Upload Photos

1,892,879 photos uploaded!

WunderBlog® & News

Nearby

Air Quality

  Air Quality AQ Index Pollutant
Not available.

Snow Depth

Station Depth Elevation

Earthquake Activity

City Distance Mag. Time & Date
Minimum magnitude displayed is 2.5.

Coastal Water Temperatures

Place Temperature

Stations

Nearby Weather Stations

Station Location Temp. Windchill Dew Point Humidity Wind Precip. Elev Updated Type
                   

Watches & Warnings

There are currently no watches in effect.